sensor_id;sensor_type;location;lat;lon;timestamp;pressure;altitude;pressure_sealevel;temperature;humidity
50057;BME280;36875;49.468;11.200;2022-10-31T00:02:22;98418.06;;;19.62;55.67
50057;BME280;36875;49.468;11.200;2022-10-31T00:04:48;98417.25;;;19.61;56.00
50057;BME280;36875;49.468;11.200;2022-10-31T00:07:13;98412.09;;;19.60;55.87
50057;BME280;36875;49.468;11.200;2022-10-31T00:09:40;98420.28;;;19.60;55.90
50057;BME280;36875;49.468;11.200;2022-10-31T00:12:06;98427.34;;;19.61;55.88
50057;BME280;36875;49.468;11.200;2022-10-31T00:14:31;98424.63;;;19.61;55.95
50057;BME280;36875;49.468;11.200;2022-10-31T00:16:57;98426.53;;;19.60;55.95
50057;BME280;36875;49.468;11.200;2022-10-31T00:19:22;98420.56;;;19.58;56.03
50057;BME280;36875;49.468;11.200;2022-10-31T00:21:48;98414.59;;;19.56;55.93
50057;BME280;36875;49.468;11.200;2022-10-31T00:24:13;98426.81;;;19.59;55.63
50057;BME280;36875;49.468;11.200;2022-10-31T00:26:40;98423.28;;;19.58;56.03
50057;BME280;36875;49.468;11.200;2022-10-31T00:29:05;98423.59;;;19.57;56.17
50057;BME280;36875;49.468;11.200;2022-10-31T00:31:31;98429.03;;;19.57;55.85
50057;BME280;36875;49.468;11.200;2022-10-31T00:33:57;98428.25;;;19.56;55.83
50057;BME280;36875;49.468;11.200;2022-10-31T00:36:23;98430.97;;;19.56;55.92
50057;BME280;36875;49.468;11.200;2022-10-31T00:38:48;98432.06;;;19.55;55.88
50057;BME280;36875;49.468;11.200;2022-10-31T00:41:16;98432.06;;;19.55;55.48
50057;BME280;36875;49.468;11.200;2022-10-31T00:43:43;98428.53;;;19.55;55.55
50057;BME280;36875;49.468;11.200;2022-10-31T00:46:09;98429.66;;;19.54;55.90
50057;BME280;36875;49.468;11.200;2022-10-31T00:48:35;98432.38;;;19.54;55.86
50057;BME280;36875;49.468;11.200;2022-10-31T00:51:00;98434.28;;;19.53;55.62
50057;BME280;36875;49.468;11.200;2022-10-31T00:53:26;98432.38;;;19.54;55.65
50057;BME280;36875;49.468;11.200;2022-10-31T00:55:51;98430.75;;;19.53;55.94
50057;BME280;36875;49.468;11.200;2022-10-31T00:58:16;98430.25;;;19.51;55.80
50057;BME280;36875;49.468;11.200;2022-10-31T01:00:43;98426.38;;;19.52;55.80
50057;BME280;36875;49.468;11.200;2022-10-31T01:03:09;98431.84;;;19.52;55.56
50057;BME280;36875;49.468;11.200;2022-10-31T01:05:35;98430.25;;;19.51;55.97
50057;BME280;36875;49.468;11.200;2022-10-31T01:08:00;98427.50;;;19.51;55.78
50057;BME280;36875;49.468;11.200;2022-10-31T01:10:25;98423.16;;;19.50;55.85
50057;BME280;36875;49.468;11.200;2022-10-31T01:12:51;98434.06;;;19.50;55.53
50057;BME280;36875;49.468;11.200;2022-10-31T01:15:19;98421.81;;;19.47;55.77
50057;BME280;36875;49.468;11.200;2022-10-31T01:17:47;98421.53;;;19.49;55.92
50057;BME280;36875;49.468;11.200;2022-10-31T01:20:14;98421.53;;;19.49;55.65
50057;BME280;36875;49.468;11.200;2022-10-31T01:22:40;98417.97;;;19.48;55.81
50057;BME280;36875;49.468;11.200;2022-10-31T01:25:06;98416.38;;;19.47;55.74
50057;BME280;36875;49.468;11.200;2022-10-31T01:27:32;98421.81;;;19.47;55.59
50057;BME280;36875;49.468;11.200;2022-10-31T01:29:58;98415.03;;;19.44;55.50
50057;BME280;36875;49.468;11.200;2022-10-31T01:32:23;98419.09;;;19.47;55.77
50057;BME280;36875;49.468;11.200;2022-10-31T01:34:50;98415.84;;;19.45;55.68
50057;BME280;36875;49.468;11.200;2022-10-31T01:37:16;98418.28;;;19.47;55.66
50057;BME280;36875;49.468;11.200;2022-10-31T01:39:42;98414.22;;;19.44;55.44
50057;BME280;36875;49.468;11.200;2022-10-31T01:42:10;98412.28;;;19.44;55.54
50057;BME280;36875;49.468;11.200;2022-10-31T01:44:52;98417.75;;;19.44;55.88
50057;BME280;36875;49.468;11.200;2022-10-31T01:47:24;98413.41;;;19.43;55.76
50057;BME280;36875;49.468;11.200;2022-10-31T01:49:55;98407.97;;;19.43;55.64
50057;BME280;36875;49.468;11.200;2022-10-31T01:52:24;98401.69;;;19.43;55.51
50057;BME280;36875;49.468;11.200;2022-10-31T01:54:56;98407.97;;;19.43;55.74
50057;BME280;36875;49.468;11.200;2022-10-31T01:57:23;98406.63;;;19.41;55.61
50057;BME280;36875;49.468;11.200;2022-10-31T01:59:55;98405.00;;;19.40;55.34
50057;BME280;36875;49.468;11.200;2022-10-31T02:02:23;98406.63;;;19.41;55.70
50057;BME280;36875;49.468;11.200;2022-10-31T02:04:49;98407.44;;;19.41;55.77
50057;BME280;36875;49.468;11.200;2022-10-31T02:07:20;98412.09;;;19.41;55.62
50057;BME280;36875;49.468;11.200;2022-10-31T02:09:50;98406.94;;;19.39;55.58
50057;BME280;36875;49.468;11.200;2022-10-31T02:12:17;98405.81;;;19.40;55.75
50057;BME280;36875;49.468;11.200;2022-10-31T02:14:44;98406.41;;;19.37;55.39
50057;BME280;36875;49.468;11.200;2022-10-31T02:17:09;98408.81;;;19.39;55.38
50057;BME280;36875;49.468;11.200;2022-10-31T02:19:41;98400.41;;;19.35;55.38
50057;BME280;36875;49.468;11.200;2022-10-31T02:22:19;98400.41;;;19.35;55.53
50057;BME280;36875;49.468;11.200;2022-10-31T02:24:57;98409.16;;;19.37;55.43
50057;BME280;36875;49.468;11.200;2022-10-31T02:27:43;98402.06;;;19.36;55.41
50057;BME280;36875;49.468;11.200;2022-10-31T02:30:18;98408.31;;;19.37;55.33
50057;BME280;36875;49.468;11.200;2022-10-31T02:33:03;98413.78;;;19.37;55.53
50057;BME280;36875;49.468;11.200;2022-10-31T02:35:39;98404.28;;;19.34;55.33
50057;BME280;36875;49.468;11.200;2022-10-31T02:38:14;98411.34;;;19.35;55.37
50057;BME280;36875;49.468;11.200;2022-10-31T02:40:49;98401.53;;;19.34;55.48
50057;BME280;36875;49.468;11.200;2022-10-31T02:43:20;98397.78;;;19.30;55.54
50057;BME280;36875;49.468;11.200;2022-10-31T02:45:50;98404.28;;;19.34;55.19
50057;BME280;36875;49.468;11.200;2022-10-31T02:48:26;98406.19;;;19.34;55.62
50057;BME280;36875;49.468;11.200;2022-10-31T02:50:56;98405.34;;;19.33;55.50
50057;BME280;36875;49.468;11.200;2022-10-31T02:53:22;98405.66;;;19.32;55.09
50057;BME280;36875;49.468;11.200;2022-10-31T02:55:58;98407.28;;;19.33;55.49
50057;BME280;36875;49.468;11.200;2022-10-31T02:58:27;98409.50;;;19.31;55.05
50057;BME280;36875;49.468;11.200;2022-10-31T03:01:09;98405.97;;;19.30;55.47
50057;BME280;36875;49.468;11.200;2022-10-31T03:03:48;98398.94;;;19.24;55.38
50057;BME280;36875;49.468;11.200;2022-10-31T03:06:20;98403.25;;;19.30;55.56
50057;BME280;36875;49.468;11.200;2022-10-31T03:08:55;98409.50;;;19.31;55.09
50057;BME280;36875;49.468;11.200;2022-10-31T03:11:28;98396.16;;;19.29;55.33
50057;BME280;36875;49.468;11.200;2022-10-31T03:13:59;98404.34;;;19.29;55.32
50057;BME280;36875;49.468;11.200;2022-10-31T03:16:29;98406.25;;;19.29;55.35
50057;BME280;36875;49.468;11.200;2022-10-31T03:19:03;98405.47;;;19.28;55.41
50057;BME280;36875;49.468;11.200;2022-10-31T03:21:35;98403.53;;;19.29;55.42
50057;BME280;36875;49.468;11.200;2022-10-31T03:24:04;98405.47;;;19.28;55.19
50057;BME280;36875;49.468;11.200;2022-10-31T03:26:32;98401.66;;;19.24;55.27
50057;BME280;36875;49.468;11.200;2022-10-31T03:29:02;98380.88;;;19.09;55.52
50057;BME280;36875;49.468;11.200;2022-10-31T03:31:31;98403.03;;;19.26;55.14
50057;BME280;36875;49.468;11.200;2022-10-31T03:34:01;98406.84;;;19.25;55.06
50057;BME280;36875;49.468;11.200;2022-10-31T03:36:29;98408.47;;;19.26;55.21
50057;BME280;36875;49.468;11.200;2022-10-31T03:38:56;98411.50;;;19.25;55.31
50057;BME280;36875;49.468;11.200;2022-10-31T03:41:27;98393.03;;;19.17;55.08
50057;BME280;36875;49.468;11.200;2022-10-31T03:43:56;98404.41;;;19.24;55.38
50057;BME280;36875;49.468;11.200;2022-10-31T03:46:22;98400.06;;;19.23;55.26
50057;BME280;36875;49.468;11.200;2022-10-31T03:48:49;98392.47;;;19.20;55.06
50057;BME280;36875;49.468;11.200;2022-10-31T03:51:20;98401.97;;;19.22;54.87
50057;BME280;36875;49.468;11.200;2022-10-31T03:53:53;98397.34;;;19.23;55.26
50057;BME280;36875;49.468;11.200;2022-10-31T03:56:26;98409.34;;;19.22;55.52
50057;BME280;36875;49.468;11.200;2022-10-31T03:58:58;98398.72;;;19.20;55.08
50057;BME280;36875;49.468;11.200;2022-10-31T04:01:25;98402.28;;;19.21;55.22
50057;BME280;36875;49.468;11.200;2022-10-31T04:03:53;98404.16;;;19.20;55.35
50057;BME280;36875;49.468;11.200;2022-10-31T04:06:21;98406.91;;;19.20;55.12
50057;BME280;36875;49.468;11.200;2022-10-31T04:08:51;98408.81;;;19.20;55.26
50057;BME280;36875;49.468;11.200;2022-10-31T04:11:19;98405.28;;;19.19;55.02
50057;BME280;36875;49.468;11.200;2022-10-31T04:13:47;98408.81;;;19.20;55.35
50057;BME280;36875;49.468;11.200;2022-10-31T04:16:15;98401.75;;;19.19;55.45
50057;BME280;36875;49.468;11.200;2022-10-31T04:18:41;98406.38;;;19.18;55.21
50057;BME280;36875;49.468;11.200;2022-10-31T04:21:07;98410.25;;;19.17;54.88
50057;BME280;36875;49.468;11.200;2022-10-31T04:23:35;98406.69;;;19.17;54.97
50057;BME280;36875;49.468;11.200;2022-10-31T04:26:01;98403.16;;;19.16;54.85
50057;BME280;36875;49.468;11.200;2022-10-31T04:28:27;98417.59;;;19.17;55.02
50057;BME280;36875;49.468;11.200;2022-10-31T04:30:52;98405.13;;;19.11;54.89
50057;BME280;36875;49.468;11.200;2022-10-31T04:33:18;98414.06;;;19.16;55.14
50057;BME280;36875;49.468;11.200;2022-10-31T04:35:44;98415.97;;;19.16;54.83
50057;BME280;36875;49.468;11.200;2022-10-31T04:38:10;98413.53;;;19.14;55.07
50057;BME280;36875;49.468;11.200;2022-10-31T04:40:36;98416.28;;;19.14;54.83
50057;BME280;36875;49.468;11.200;2022-10-31T04:43:02;98407.13;;;19.05;55.13
50057;BME280;36875;49.468;11.200;2022-10-31T04:45:27;98415.47;;;19.14;55.05
50057;BME280;36875;49.468;11.200;2022-10-31T04:47:53;98416.56;;;19.13;55.17
50057;BME280;36875;49.468;11.200;2022-10-31T04:50:18;98416.56;;;19.13;54.94
50057;BME280;36875;49.468;11.200;2022-10-31T04:52:45;98411.38;;;19.11;54.89
50057;BME280;36875;49.468;11.200;2022-10-31T04:55:12;98412.22;;;19.12;55.17
50057;BME280;36875;49.468;11.200;2022-10-31T04:57:41;98405.94;;;19.11;55.20
50057;BME280;36875;49.468;11.200;2022-10-31T05:00:08;98409.78;;;19.10;55.08
50057;BME280;36875;49.468;11.200;2022-10-31T05:02:34;98405.94;;;19.11;54.70
50057;BME280;36875;49.468;11.200;2022-10-31T05:04:59;98411.38;;;19.11;54.95
50057;BME280;36875;49.468;11.200;2022-10-31T05:07:25;98405.72;;;19.07;54.79
50057;BME280;36875;49.468;11.200;2022-10-31T05:09:50;98403.50;;;19.10;55.09
50057;BME280;36875;49.468;11.200;2022-10-31T05:12:15;98396.44;;;19.09;54.83
50057;BME280;36875;49.468;11.200;2022-10-31T05:14:42;98394.00;;;19.07;54.99
50057;BME280;36875;49.468;11.200;2022-10-31T05:17:08;98401.88;;;19.09;55.02
50057;BME280;36875;49.468;11.200;2022-10-31T05:19:33;98401.09;;;19.08;55.05
50057;BME280;36875;49.468;11.200;2022-10-31T05:21:58;98402.97;;;19.07;55.14
50057;BME280;36875;49.468;11.200;2022-10-31T05:24:24;98400.56;;;19.06;54.58
50057;BME280;36875;49.468;11.200;2022-10-31T05:26:49;98404.09;;;19.06;54.73
50057;BME280;36875;49.468;11.200;2022-10-31T05:29:15;98403.28;;;19.06;54.90
50057;BME280;36875;49.468;11.200;2022-10-31T05:31:42;98397.00;;;19.05;54.85
50057;BME280;36875;49.468;11.200;2022-10-31T05:34:07;98394.56;;;19.04;55.02
50057;BME280;36875;49.468;11.200;2022-10-31T05:36:33;98388.81;;;19.05;55.10
50057;BME280;36875;49.468;11.200;2022-10-31T05:38:58;98383.66;;;19.04;54.67
50057;BME280;36875;49.468;11.200;2022-10-31T05:41:23;98387.22;;;19.04;54.85
50057;BME280;36875;49.468;11.200;2022-10-31T05:43:49;98382.06;;;19.03;54.96
50057;BME280;36875;49.468;11.200;2022-10-31T05:46:14;98382.84;;;19.03;54.66
50057;BME280;36875;49.468;11.200;2022-10-31T05:48:41;98387.50;;;19.03;54.68
50057;BME280;36875;49.468;11.200;2022-10-31T05:51:07;98391.31;;;19.02;54.64
50057;BME280;36875;49.468;11.200;2022-10-31T05:53:32;98392.16;;;19.02;54.51
50057;BME280;36875;49.468;11.200;2022-10-31T05:55:57;98391.31;;;19.02;54.69
50057;BME280;36875;49.468;11.200;2022-10-31T05:58:23;98393.53;;;19.00;54.52
50057;BME280;36875;49.468;11.200;2022-10-31T06:00:48;98394.34;;;19.00;54.82
50057;BME280;36875;49.468;11.200;2022-10-31T06:03:14;98405.25;;;19.00;54.85
50057;BME280;36875;49.468;11.200;2022-10-31T06:05:41;98398.19;;;18.99;54.69
50057;BME280;36875;49.468;11.200;2022-10-31T06:08:06;98406.88;;;19.01;54.74
50057;BME280;36875;49.468;11.200;2022-10-31T06:10:32;98403.66;;;18.99;54.79
50057;BME280;36875;49.468;11.200;2022-10-31T06:12:57;98408.28;;;18.99;54.27
50057;BME280;36875;49.468;11.200;2022-10-31T06:15:23;98399.28;;;18.98;54.88
50057;BME280;36875;49.468;11.200;2022-10-31T06:17:57;98402.00;;;18.98;54.54
50057;BME280;36875;49.468;11.200;2022-10-31T06:20:23;98407.47;;;18.98;54.46
50057;BME280;36875;49.468;11.200;2022-10-31T06:22:52;98406.66;;;18.98;54.39
50057;BME280;36875;49.468;11.200;2022-10-31T06:25:18;98400.69;;;18.96;54.50
50057;BME280;36875;49.468;11.200;2022-10-31T06:27:43;98411.31;;;18.97;54.54
50057;BME280;36875;49.468;11.200;2022-10-31T06:30:09;98404.22;;;18.96;54.45
50057;BME280;36875;49.468;11.200;2022-10-31T06:32:35;98402.31;;;18.97;54.71
50057;BME280;36875;49.468;11.200;2022-10-31T06:35:00;98394.16;;;18.97;54.84
50057;BME280;36875;49.468;11.200;2022-10-31T06:37:26;98402.63;;;18.95;54.57
50057;BME280;36875;49.468;11.200;2022-10-31T06:39:53;98395.22;;;18.96;54.34
50057;BME280;36875;49.468;11.200;2022-10-31T06:42:18;98395.53;;;18.94;54.55
50057;BME280;36875;49.468;11.200;2022-10-31T06:44:44;98397.97;;;18.96;54.78
50057;BME280;36875;49.468;11.200;2022-10-31T06:47:09;98405.06;;;18.97;54.30
50057;BME280;36875;49.468;11.200;2022-10-31T06:49:35;98396.31;;;18.95;54.88
50057;BME280;36875;49.468;11.200;2022-10-31T06:52:00;98408.06;;;18.95;54.82
50057;BME280;36875;49.468;11.200;2022-10-31T06:54:26;98409.69;;;18.96;54.47
50057;BME280;36875;49.468;11.200;2022-10-31T06:56:53;98412.69;;;18.95;54.45
50057;BME280;36875;49.468;11.200;2022-10-31T06:59:18;98405.34;;;18.95;54.91
50057;BME280;36875;49.468;11.200;2022-10-31T07:01:44;98416.25;;;18.95;54.47
50057;BME280;36875;49.468;11.200;2022-10-31T07:04:10;98415.13;;;18.96;54.62
50057;BME280;36875;49.468;11.200;2022-10-31T07:06:36;98411.88;;;18.94;54.79
50057;BME280;36875;49.468;11.200;2022-10-31T07:09:01;98398.81;;;18.91;55.16
50057;BME280;36875;49.468;11.200;2022-10-31T07:11:27;98407.47;;;18.98;54.66
50057;BME280;36875;49.468;11.200;2022-10-31T07:13:53;98419.50;;;18.97;54.46
50057;BME280;36875;49.468;11.200;2022-10-31T07:16:19;98409.09;;;18.99;54.34
50057;BME280;36875;49.468;11.200;2022-10-31T07:18:44;98414.56;;;18.99;54.77
50057;BME280;36875;49.468;11.200;2022-10-31T07:21:10;98417.56;;;18.98;54.47
50057;BME280;36875;49.468;11.200;2022-10-31T07:23:35;98417.06;;;18.96;54.66
50057;BME280;36875;49.468;11.200;2022-10-31T07:26:01;98423.25;;;19.01;54.58
50057;BME280;36875;49.468;11.200;2022-10-31T07:28:27;98417.28;;;18.99;54.53
50057;BME280;36875;49.468;11.200;2022-10-31T07:30:55;98420.47;;;19.06;54.45
50057;BME280;36875;49.468;11.200;2022-10-31T07:33:22;98424.50;;;19.09;54.09
50057;BME280;36875;49.468;11.200;2022-10-31T07:35:47;98424.22;;;19.11;54.22
50057;BME280;36875;49.468;11.200;2022-10-31T07:38:14;98407.69;;;19.02;54.17
50057;BME280;36875;49.468;11.200;2022-10-31T07:40:41;98421.22;;;19.12;54.18
50057;BME280;36875;49.468;11.200;2022-10-31T07:43:07;98410.94;;;19.04;54.31
50057;BME280;36875;49.468;11.200;2022-10-31T07:45:33;98416.56;;;19.13;54.36
50057;BME280;36875;49.468;11.200;2022-10-31T07:48:00;98417.69;;;19.12;54.04
50057;BME280;36875;49.468;11.200;2022-10-31T07:50:26;98399.00;;;19.00;54.18
50057;BME280;36875;49.468;11.200;2022-10-31T07:52:59;98415.47;;;19.14;54.01
50057;BME280;36875;49.468;11.200;2022-10-31T07:55:25;98413.03;;;19.12;54.52
50057;BME280;36875;49.468;11.200;2022-10-31T07:57:55;98415.47;;;19.14;54.06
50057;BME280;36875;49.468;11.200;2022-10-31T08:00:21;98415.47;;;19.14;54.35
50057;BME280;36875;49.468;11.200;2022-10-31T08:02:46;98408.66;;;19.11;54.01
50057;BME280;36875;49.468;11.200;2022-10-31T08:05:13;98410.00;;;19.14;54.47
50057;BME280;36875;49.468;11.200;2022-10-31T08:07:38;98410.31;;;19.12;54.21
50057;BME280;36875;49.468;11.200;2022-10-31T08:10:05;98411.09;;;19.13;54.30
50057;BME280;36875;49.468;11.200;2022-10-31T08:12:31;98401.31;;;19.12;54.32
50057;BME280;36875;49.468;11.200;2022-10-31T08:14:56;98399.69;;;19.11;54.00
50057;BME280;36875;49.468;11.200;2022-10-31T08:17:22;98401.09;;;19.08;54.19
50057;BME280;36875;49.468;11.200;2022-10-31T08:19:47;98386.09;;;19.05;54.20
50057;BME280;36875;49.468;11.200;2022-10-31T08:22:14;98396.16;;;19.10;54.39
50057;BME280;36875;49.468;11.200;2022-10-31T08:24:40;98395.03;;;19.11;54.05
50057;BME280;36875;49.468;11.200;2022-10-31T08:27:05;98393.13;;;19.12;54.37
50057;BME280;36875;49.468;11.200;2022-10-31T08:29:31;98396.16;;;19.10;54.34
50057;BME280;36875;49.468;11.200;2022-10-31T08:31:57;98391.78;;;19.09;54.39
50057;BME280;36875;49.468;11.200;2022-10-31T08:34:23;98402.69;;;19.09;54.07
50057;BME280;36875;49.468;11.200;2022-10-31T08:36:49;98389.34;;;19.07;54.03
50057;BME280;36875;49.468;11.200;2022-10-31T08:39:15;98394.78;;;19.07;54.26
50057;BME280;36875;49.468;11.200;2022-10-31T08:41:41;98388.25;;;19.09;54.13
50057;BME280;36875;49.468;11.200;2022-10-31T08:44:06;98396.44;;;19.09;54.29
50057;BME280;36875;49.468;11.200;2022-10-31T08:46:32;98380.88;;;19.09;54.06
50057;BME280;36875;49.468;11.200;2022-10-31T08:48:58;98374.09;;;19.06;54.40
50057;BME280;36875;49.468;11.200;2022-10-31T08:51:23;98378.94;;;19.10;54.41
50057;BME280;36875;49.468;11.200;2022-10-31T08:53:49;98389.56;;;19.11;54.19
50057;BME280;36875;49.468;11.200;2022-10-31T08:56:15;98376.75;;;19.12;54.30
50057;BME280;36875;49.468;11.200;2022-10-31T08:58:41;98378.66;;;19.11;54.32
50057;BME280;36875;49.468;11.200;2022-10-31T09:01:06;98382.22;;;19.12;54.15
50057;BME280;36875;49.468;11.200;2022-10-31T09:03:32;98368.34;;;19.08;54.31
50057;BME280;36875;49.468;11.200;2022-10-31T09:05:59;98378.06;;;19.14;53.87
50057;BME280;36875;49.468;11.200;2022-10-31T09:08:25;98370.69;;;19.15;54.12
50057;BME280;36875;49.468;11.200;2022-10-31T09:10:51;98377.78;;;19.16;54.04
50057;BME280;36875;49.468;11.200;2022-10-31T09:13:19;98375.06;;;19.16;54.14
50057;BME280;36875;49.468;11.200;2022-10-31T09:15:47;98375.06;;;19.16;54.45
50057;BME280;36875;49.468;11.200;2022-10-31T09:18:14;98377.22;;;19.19;54.43
50057;BME280;36875;49.468;11.200;2022-10-31T09:20:41;98370.13;;;19.18;54.05
50057;BME280;36875;49.468;11.200;2022-10-31T09:23:09;98374.66;;;19.22;54.01
50057;BME280;36875;49.468;11.200;2022-10-31T09:25:35;98371.66;;;19.24;54.17
50057;BME280;36875;49.468;11.200;2022-10-31T09:28:03;98378.47;;;19.26;54.17
50057;BME280;36875;49.468;11.200;2022-10-31T09:30:32;98376.25;;;19.29;54.15
50057;BME280;36875;49.468;11.200;2022-10-31T09:32:59;98379.78;;;19.29;54.00
50057;BME280;36875;49.468;11.200;2022-10-31T09:35:25;98369.38;;;19.31;54.42
50057;BME280;36875;49.468;11.200;2022-10-31T09:37:54;98373.75;;;19.32;54.19
50057;BME280;36875;49.468;11.200;2022-10-31T09:40:19;98360.38;;;19.31;54.07
50057;BME280;36875;49.468;11.200;2022-10-31T09:42:53;98348.66;;;19.30;54.25
50057;BME280;36875;49.468;11.200;2022-10-31T09:45:25;98365.69;;;19.41;53.80
50057;BME280;36875;49.468;11.200;2022-10-31T09:48:06;98360.75;;;19.43;53.94
50057;BME280;36875;49.468;11.200;2022-10-31T09:50:39;98366.72;;;19.45;54.12
50057;BME280;36875;49.468;11.200;2022-10-31T09:53:10;98364.22;;;19.49;53.93
50057;BME280;36875;49.468;11.200;2022-10-31T09:55:40;98343.88;;;19.41;53.89
50057;BME280;36875;49.468;11.200;2022-10-31T09:58:08;98362.00;;;19.51;53.95
50057;BME280;36875;49.468;11.200;2022-10-31T10:00:39;98358.13;;;19.52;54.06
50057;BME280;36875;49.468;11.200;2022-10-31T10:03:11;98352.09;;;19.55;54.20
50057;BME280;36875;49.468;11.200;2022-10-31T10:05:44;98349.88;;;19.57;53.85
50057;BME280;36875;49.468;11.200;2022-10-31T10:08:15;98352.53;;;19.62;54.01
50057;BME280;36875;49.468;11.200;2022-10-31T10:10:48;98348.69;;;19.63;53.94
50057;BME280;36875;49.468;11.200;2022-10-31T10:13:36;98345.34;;;19.66;54.10
50057;BME280;36875;49.468;11.200;2022-10-31T10:16:15;98340.13;;;19.70;53.77
50057;BME280;36875;49.468;11.200;2022-10-31T10:18:52;98346.34;;;19.75;53.77
50057;BME280;36875;49.468;11.200;2022-10-31T10:21:29;98341.38;;;19.77;53.78
50057;BME280;36875;49.468;11.200;2022-10-31T10:24:08;98328.84;;;19.76;53.98
50057;BME280;36875;49.468;11.200;2022-10-31T10:26:38;98330.38;;;19.82;53.91
50057;BME280;36875;49.468;11.200;2022-10-31T10:29:22;98313.47;;;19.80;53.88
50057;BME280;36875;49.468;11.200;2022-10-31T10:31:51;98325.91;;;19.87;53.72
50057;BME280;36875;49.468;11.200;2022-10-31T10:34:23;98325.63;;;19.88;53.76
50057;BME280;36875;49.468;11.200;2022-10-31T10:36:56;98322.09;;;19.88;53.69
50057;BME280;36875;49.468;11.200;2022-10-31T10:39:27;98320.38;;;19.92;53.94
50057;BME280;36875;49.468;11.200;2022-10-31T10:41:55;98306.13;;;19.95;53.76
50057;BME280;36875;49.468;11.200;2022-10-31T10:44:43;98306.13;;;19.95;53.95
50057;BME280;36875;49.468;11.200;2022-10-31T10:47:35;98306.63;;;19.97;53.77
50057;BME280;36875;49.468;11.200;2022-10-31T10:50:10;98298.66;;;20.00;53.82
50057;BME280;36875;49.468;11.200;2022-10-31T10:52:46;98297.22;;;20.03;53.73
50057;BME280;36875;49.468;11.200;2022-10-31T10:55:17;98299.16;;;20.02;53.75
50057;BME280;36875;49.468;11.200;2022-10-31T10:57:53;98284.69;;;20.02;53.94
50057;BME280;36875;49.468;11.200;2022-10-31T11:00:21;98290.16;;;20.02;54.09
50057;BME280;36875;49.468;11.200;2022-10-31T11:02:48;98286.00;;;20.05;53.67
50057;BME280;36875;49.468;11.200;2022-10-31T11:05:22;98281.97;;;20.02;54.29
50057;BME280;36875;49.468;11.200;2022-10-31T11:07:49;98278.41;;;20.01;53.91
50057;BME280;36875;49.468;11.200;2022-10-31T11:10:16;98273.25;;;20.00;53.95
50057;BME280;36875;49.468;11.200;2022-10-31T11:12:42;98274.06;;;20.00;54.24
50057;BME280;36875;49.468;11.200;2022-10-31T11:15:18;98264.44;;;20.03;54.19
50057;BME280;36875;49.468;11.200;2022-10-31T11:17:48;98265.88;;;20.00;54.49
50057;BME280;36875;49.468;11.200;2022-10-31T11:20:29;98262.34;;;20.00;54.29
50057;BME280;36875;49.468;11.200;2022-10-31T11:23:16;98254.44;;;19.98;54.47
50057;BME280;36875;49.468;11.200;2022-10-31T11:25:48;98249.78;;;19.99;54.48
50057;BME280;36875;49.468;11.200;2022-10-31T11:28:14;98245.44;;;19.98;54.40
50057;BME280;36875;49.468;11.200;2022-10-31T11:30:43;98240.47;;;20.00;54.29
50057;BME280;36875;49.468;11.200;2022-10-31T11:33:16;98228.22;;;19.97;54.32
50057;BME280;36875;49.468;11.200;2022-10-31T11:35:44;98231.78;;;19.98;54.46
50057;BME280;36875;49.468;11.200;2022-10-31T11:38:15;98227.72;;;19.95;54.49
50057;BME280;36875;49.468;11.200;2022-10-31T11:40:51;98236.72;;;19.96;54.70
50057;BME280;36875;49.468;11.200;2022-10-31T11:43:18;98224.69;;;19.97;54.63
50057;BME280;36875;49.468;11.200;2022-10-31T11:45:43;98225.78;;;19.96;54.51
50057;BME280;36875;49.468;11.200;2022-10-31T11:48:16;98221.94;;;19.97;54.41
50057;BME280;36875;49.468;11.200;2022-10-31T11:50:48;98226.00;;;19.99;54.52
50057;BME280;36875;49.468;11.200;2022-10-31T11:53:16;98221.94;;;19.97;54.53
50057;BME280;36875;49.468;11.200;2022-10-31T11:55:42;98211.03;;;19.97;54.35
50057;BME280;36875;49.468;11.200;2022-10-31T11:58:20;98202.41;;;19.90;54.65
50057;BME280;36875;49.468;11.200;2022-10-31T12:00:51;98213.75;;;19.97;54.58
50057;BME280;36875;49.468;11.200;2022-10-31T12:03:28;98204.75;;;19.96;54.57
50057;BME280;36875;49.468;11.200;2022-10-31T12:06:02;98197.56;;;20.00;54.50
50057;BME280;36875;49.468;11.200;2022-10-31T12:08:30;98188.78;;;20.03;54.49
50057;BME280;36875;49.468;11.200;2022-10-31T12:11:00;98194.75;;;20.06;54.11
50057;BME280;36875;49.468;11.200;2022-10-31T12:13:33;98194.94;;;20.09;54.09
50057;BME280;36875;49.468;11.200;2022-10-31T12:16:06;98185.63;;;20.10;54.30
50057;BME280;36875;49.468;11.200;2022-10-31T12:18:52;98175.00;;;20.09;54.40
50057;BME280;36875;49.468;11.200;2022-10-31T12:21:32;98176.63;;;20.10;54.10
50057;BME280;36875;49.468;11.200;2022-10-31T12:24:07;98173.28;;;20.13;54.06
50057;BME280;36875;49.468;11.200;2022-10-31T12:26:42;98172.44;;;20.12;54.02
50057;BME280;36875;49.468;11.200;2022-10-31T12:29:19;98176.03;;;20.13;54.22
50057;BME280;36875;49.468;11.200;2022-10-31T12:32:01;98173.09;;;20.09;54.45
50057;BME280;36875;49.468;11.200;2022-10-31T12:34:50;98159.13;;;20.11;54.22
50057;BME280;36875;49.468;11.200;2022-10-31T12:37:33;98170.22;;;20.14;54.07
50057;BME280;36875;49.468;11.200;2022-10-31T12:40:17;98161.53;;;20.12;54.09
50057;BME280;36875;49.468;11.200;2022-10-31T12:42:54;98162.03;;;20.14;54.05
50057;BME280;36875;49.468;11.200;2022-10-31T12:45:36;98160.72;;;20.12;54.23
50057;BME280;36875;49.468;11.200;2022-10-31T12:48:17;98148.19;;;20.11;54.35
50057;BME280;36875;49.468;11.200;2022-10-31T12:50:57;98150.59;;;20.12;54.43
50057;BME280;36875;49.468;11.200;2022-10-31T12:53:38;98149.50;;;20.13;54.15
50057;BME280;36875;49.468;11.200;2022-10-31T12:56:17;98143.22;;;20.13;54.34
50057;BME280;36875;49.468;11.200;2022-10-31T12:58:47;98141.28;;;20.13;54.24
50057;BME280;36875;49.468;11.200;2022-10-31T13:01:19;98136.13;;;20.12;54.23